createdAt,value
2017-08-11T00:00:17.391Z,22.61
2017-08-11T00:01:27.740Z,22.73
2017-08-11T00:02:38.778Z,22.69
2017-08-11T00:03:49.135Z,22.81
2017-08-11T00:04:59.539Z,22.79
2017-08-11T00:06:09.906Z,22.79
2017-08-11T00:07:19.937Z,22.76
2017-08-11T00:08:30.294Z,22.81
2017-08-11T00:09:40.339Z,22.79
2017-08-11T00:10:50.437Z,22.79
2017-08-11T00:12:00.476Z,22.85
2017-08-11T00:13:10.525Z,22.73
2017-08-11T00:14:20.553Z,22.75
2017-08-11T00:15:30.910Z,22.69
2017-08-11T00:16:41.317Z,22.66
2017-08-11T00:17:51.354Z,22.69
2017-08-11T00:19:01.437Z,22.73
2017-08-11T00:20:12.842Z,22.67
2017-08-11T00:21:23.190Z,22.64
2017-08-11T00:22:33.276Z,22.78
2017-08-11T00:23:43.009Z,22.66
2017-08-11T00:24:53.057Z,22.66
2017-08-11T00:26:03.411Z,22.59
2017-08-11T00:27:13.449Z,22.39
2017-08-11T00:28:23.543Z,22.24
2017-08-11T00:29:33.608Z,22.09
2017-08-11T00:30:43.327Z,21.97
2017-08-11T00:31:53.684Z,21.86
2017-08-11T00:33:03.724Z,21.76
2017-08-11T00:34:13.824Z,21.73
2017-08-11T00:35:23.873Z,21.64
2017-08-11T00:36:34.227Z,21.59
2017-08-11T00:37:44.278Z,21.55
2017-08-11T00:38:54.319Z,21.52
2017-08-11T00:40:04.403Z,21.52
2017-08-11T00:41:14.768Z,21.49
2017-08-11T00:42:25.134Z,21.52
2017-08-11T00:43:35.176Z,21.55
2017-08-11T00:44:45.517Z,21.55
2017-08-11T00:45:55.910Z,21.53
2017-08-11T00:47:05.633Z,21.53
2017-08-11T00:48:16.000Z,21.49
2017-08-11T00:49:26.346Z,21.62
2017-08-11T00:50:36.699Z,21.56
2017-08-11T00:51:46.799Z,21.58
2017-08-11T00:52:57.159Z,21.56
2017-08-11T00:54:06.897Z,21.58
2017-08-11T00:55:16.944Z,21.61
2017-08-11T00:56:27.300Z,21.58
2017-08-11T00:57:37.394Z,21.52
2017-08-11T00:58:47.420Z,21.67
2017-08-11T00:59:57.447Z,21.56
2017-08-11T01:01:07.176Z,21.59
2017-08-11T01:02:17.215Z,21.55
2017-08-11T01:03:27.306Z,21.56
2017-08-11T01:04:37.031Z,21.55
2017-08-11T01:05:47.389Z,21.66
2017-08-11T01:06:57.768Z,21.62
2017-08-11T01:08:08.144Z,21.62
2017-08-11T01:09:18.538Z,21.62
2017-08-11T01:10:28.569Z,21.62
2017-08-11T01:11:38.930Z,21.67
2017-08-11T01:12:48.980Z,21.58
2017-08-11T01:13:59.018Z,21.58
2017-08-11T01:15:08.785Z,21.59
2017-08-11T01:16:18.825Z,21.55
2017-08-11T01:17:29.173Z,21.59
2017-08-11T01:18:38.885Z,21.55
2017-08-11T01:19:49.227Z,21.64
2017-08-11T01:20:59.633Z,21.67
2017-08-11T01:22:09.665Z,21.68
2017-08-11T01:23:20.017Z,21.59
2017-08-11T01:24:30.363Z,21.62
2017-08-11T01:25:40.709Z,21.64
2017-08-11T01:26:50.813Z,21.59
2017-08-11T01:28:00.846Z,21.64
2017-08-11T01:29:11.221Z,21.62
2017-08-11T01:30:21.248Z,21.71
2017-08-11T01:31:31.594Z,21.59
2017-08-11T01:32:41.381Z,21.7
2017-08-11T01:33:51.734Z,21.66
2017-08-11T01:35:01.469Z,21.7
2017-08-11T01:36:10.891Z,21.59
2017-08-11T01:37:20.638Z,21.62
2017-08-11T01:38:31.040Z,21.68
2017-08-11T01:39:41.066Z,21.58
2017-08-11T01:40:51.106Z,21.64
2017-08-11T01:42:01.455Z,21.66
2017-08-11T01:43:11.491Z,21.62
2017-08-11T01:44:21.899Z,21.52
2017-08-11T01:45:31.619Z,21.53
2017-08-11T01:46:41.654Z,21.53
2017-08-11T01:47:53.476Z,21.52
2017-08-11T01:49:03.511Z,21.53
2017-08-11T01:50:13.918Z,21.48
2017-08-11T01:51:23.977Z,21.41
2017-08-11T01:52:34.006Z,21.34
2017-08-11T01:53:44.039Z,21.23
2017-08-11T01:54:54.077Z,21.22
2017-08-11T01:56:04.174Z,21.16
2017-08-11T01:57:14.548Z,21.21
2017-08-11T01:58:24.890Z,21.16
2017-08-11T01:59:35.244Z,21.18
2017-08-11T02:00:45.286Z,21.15
2017-08-11T02:01:55.387Z,21.01
2017-08-11T02:03:05.740Z,20.93
2017-08-11T02:04:15.483Z,20.98
2017-08-11T02:05:25.867Z,20.93
2017-08-11T02:06:35.595Z,20.83
2017-08-11T02:07:45.686Z,20.85
2017-08-11T02:08:56.028Z,20.83
2017-08-11T02:10:06.071Z,20.81
2017-08-11T02:11:16.424Z,20.81
2017-08-11T02:12:26.771Z,20.78
2017-08-11T02:13:36.555Z,20.78
2017-08-11T02:14:46.292Z,20.78
2017-08-11T02:15:56.342Z,20.86
2017-08-11T02:17:06.388Z,20.78
2017-08-11T02:18:16.437Z,20.75
2017-08-11T02:19:26.871Z,20.76
2017-08-11T02:20:36.902Z,20.67
2017-08-11T02:21:46.623Z,20.76
2017-08-11T02:22:56.352Z,20.66
2017-08-11T02:24:06.093Z,20.72
2017-08-11T02:25:16.485Z,20.66
2017-08-11T02:26:26.218Z,20.72
2017-08-11T02:27:36.244Z,20.66
2017-08-11T02:28:46.608Z,20.71
2017-08-11T02:29:56.635Z,20.72
2017-08-11T02:31:06.414Z,20.61
2017-08-11T02:32:16.785Z,20.56
2017-08-11T02:33:27.124Z,20.51
2017-08-11T02:34:37.488Z,20.53
2017-08-11T02:35:47.221Z,20.48
2017-08-11T02:36:56.682Z,20.54
2017-08-11T02:38:07.052Z,20.49
2017-08-11T02:39:17.450Z,20.46
2017-08-11T02:40:27.820Z,20.53
2017-08-11T02:41:37.872Z,20.41
2017-08-11T02:42:48.281Z,20.37
2017-08-11T02:43:58.638Z,20.42
2017-08-11T02:45:08.363Z,20.35
2017-08-11T02:46:18.718Z,20.4
2017-08-11T02:47:29.057Z,20.37
2017-08-11T02:48:38.835Z,20.37
2017-08-11T02:49:48.577Z,20.27
2017-08-11T02:50:58.938Z,20.27
2017-08-11T02:52:08.670Z,20.23
2017-08-11T02:53:19.038Z,20.25
2017-08-11T02:54:29.119Z,20.2
2017-08-11T02:55:39.464Z,20.16
2017-08-11T02:56:49.499Z,20.07
2017-08-11T02:57:59.539Z,20.15
2017-08-11T02:59:09.606Z,20.01
2017-08-11T03:00:19.385Z,19.98
2017-08-11T03:01:29.409Z,20.1
2017-08-11T03:33:50.478Z,17.46
2017-08-11T03:35:00.510Z,17.5
2017-08-11T03:36:10.228Z,17.5
2017-08-11T03:37:19.948Z,17.55
2017-08-11T03:38:29.985Z,17.73
2017-08-11T03:39:40.407Z,17.76
2017-08-11T03:40:50.128Z,17.87
2017-08-11T03:42:00.167Z,18.02
2017-08-11T03:43:10.505Z,18.21
2017-08-11T03:44:20.851Z,18.23
2017-08-11T03:45:30.956Z,18.44
2017-08-11T03:46:41.308Z,18.65
2017-08-11T03:47:51.679Z,18.72
2017-08-11T03:49:01.718Z,18.9
2017-08-11T03:50:11.760Z,18.96
2017-08-11T03:51:21.541Z,19.1
2017-08-11T03:52:31.592Z,19.19
2017-08-11T03:53:41.635Z,19.3
2017-08-11T03:54:51.989Z,19.31
2017-08-11T03:56:02.349Z,19.45
2017-08-11T03:57:12.780Z,19.5
2017-08-11T03:58:22.499Z,19.64
2017-08-11T03:59:32.532Z,19.78
2017-08-11T04:00:42.901Z,19.75
2017-08-11T04:01:52.611Z,19.78
2017-08-11T04:03:02.691Z,19.8
2017-08-11T04:04:12.715Z,19.86
2017-08-11T04:05:22.135Z,19.89
2017-08-11T04:06:31.877Z,19.93
2017-08-11T04:07:42.005Z,19.95
2017-08-11T04:08:52.412Z,19.95
2017-08-11T04:10:02.755Z,20.01
2017-08-11T04:11:12.500Z,20.02
2017-08-11T04:12:22.838Z,20.08
2017-08-11T04:13:32.871Z,20.01
2017-08-11T04:14:42.659Z,20.12
2017-08-11T04:15:53.008Z,20.16
2017-08-11T04:17:03.360Z,20.32
2017-08-11T04:18:13.445Z,20.32
2017-08-11T04:19:23.792Z,20.44
2017-08-11T04:20:33.560Z,20.51
2017-08-11T04:21:44.112Z,20.66
2017-08-11T04:22:54.519Z,20.86
2017-08-11T04:24:04.860Z,20.97
2017-08-11T04:25:14.900Z,21.03
2017-08-11T04:26:24.977Z,21.16
2017-08-11T04:27:35.009Z,21.34
2017-08-11T04:28:45.060Z,21.51
2017-08-11T04:29:55.102Z,21.52
2017-08-11T04:31:04.839Z,21.64
2017-08-11T04:32:15.252Z,21.68
2017-08-11T04:33:25.634Z,21.83
2017-08-11T04:34:36.025Z,21.86
2017-08-11T04:35:46.372Z,22.07
2017-08-11T04:36:56.105Z,22.16
2017-08-11T04:38:06.192Z,22.2
2017-08-11T04:39:16.539Z,22.23
2017-08-11T04:40:26.881Z,22.24
2017-08-11T04:41:37.227Z,22.26
2017-08-11T04:42:47.582Z,22.24
2017-08-11T04:43:57.979Z,22.31
2017-08-11T04:45:08.322Z,22.38
2017-08-11T04:46:18.668Z,22.44
2017-08-11T04:47:28.728Z,22.63
2017-08-11T04:48:38.772Z,22.81
2017-08-11T04:49:49.427Z,22.91
2017-08-11T04:50:59.776Z,23.19
2017-08-11T04:52:10.135Z,23.6
2017-08-11T04:53:20.495Z,23.99
2017-08-11T04:54:30.551Z,24.3
2017-08-11T04:55:40.649Z,24.07
2017-08-11T04:56:50.692Z,23.93
2017-08-11T04:58:00.742Z,23.89
2017-08-11T04:59:11.143Z,23.85
2017-08-11T05:00:21.187Z,23.85
2017-08-11T05:01:31.577Z,24.17
2017-08-11T05:02:41.943Z,24.39
2017-08-11T05:03:51.678Z,24.21
2017-08-11T05:05:02.047Z,24.29
2017-08-11T05:06:12.095Z,24.03
2017-08-11T05:07:22.500Z,23.97
2017-08-11T05:08:32.536Z,23.85
2017-08-11T05:09:42.577Z,23.82
2017-08-11T05:10:52.929Z,23.66
2017-08-11T05:12:02.962Z,23.64
2017-08-11T05:13:13.389Z,23.55
2017-08-11T05:14:23.434Z,23.52
2017-08-11T05:15:33.804Z,23.52
2017-08-11T05:16:43.547Z,23.59
2017-08-11T05:17:53.909Z,23.6
2017-08-11T05:19:04.325Z,23.81
2017-08-11T05:20:14.666Z,23.81
2017-08-11T05:21:24.698Z,23.85
2017-08-11T05:22:35.053Z,23.85
2017-08-11T05:23:45.425Z,24.33
2017-08-11T05:24:55.520Z,24.64
2017-08-11T05:26:05.918Z,24.32
2017-08-11T05:27:16.287Z,24.02
2017-08-11T05:28:26.324Z,23.77
2017-08-11T05:29:36.680Z,23.7
2017-08-11T05:30:47.091Z,24
2017-08-11T05:31:57.435Z,23.89
2017-08-11T05:33:07.511Z,24.29
2017-08-11T05:34:17.873Z,24.33
2017-08-11T05:35:27.909Z,24.21
2017-08-11T05:36:38.313Z,24.51
2017-08-11T05:37:48.353Z,24.04
2017-08-11T05:38:58.709Z,23.79
2017-08-11T05:40:09.070Z,23.64
2017-08-11T05:41:19.467Z,23.47
2017-08-11T05:42:29.893Z,23.44
2017-08-11T05:43:40.257Z,23.41
2017-08-11T05:44:50.644Z,23.35
2017-08-11T05:46:00.690Z,23.41
2017-08-11T05:47:10.733Z,23.4
2017-08-11T05:48:21.129Z,23.47
2017-08-11T05:49:31.479Z,23.55
2017-08-11T05:50:41.519Z,23.5
2017-08-11T05:51:51.548Z,23.55
2017-08-11T05:53:01.885Z,23.56
2017-08-11T05:54:11.976Z,23.59
2017-08-11T05:55:22.327Z,23.59
2017-08-11T05:56:32.680Z,23.66
2017-08-11T05:57:42.415Z,23.75
2017-08-11T05:58:52.774Z,23.71
2017-08-11T06:00:03.169Z,23.82
2017-08-11T06:01:13.532Z,23.85
2017-08-11T06:02:23.878Z,23.87
2017-08-11T06:03:34.240Z,23.9
2017-08-11T06:04:43.981Z,24
2017-08-11T06:05:53.760Z,24.04
2017-08-11T06:07:04.101Z,24.18
2017-08-11T06:08:14.127Z,24.26
2017-08-11T06:09:24.493Z,24.33
2017-08-11T06:10:34.859Z,24.46
2017-08-11T06:11:46.714Z,24.58
2017-08-11T06:12:57.060Z,24.7
2017-08-11T06:14:07.119Z,24.61
2017-08-11T06:15:17.463Z,24.64
2017-08-11T06:16:27.839Z,24.77
2017-08-11T06:17:37.941Z,24.74
2017-08-11T06:18:48.298Z,24.9
2017-08-11T06:19:58.662Z,25.14
2017-08-11T06:21:09.021Z,25.44
2017-08-11T06:22:19.073Z,25.59
2017-08-11T06:23:29.184Z,25.64
2017-08-11T06:24:39.562Z,25.69
2017-08-11T06:25:49.605Z,25.94
2017-08-11T06:26:59.967Z,25.91
2017-08-11T06:28:10.318Z,26
2017-08-11T06:29:20.718Z,26.11
2017-08-11T06:30:30.770Z,26.17
2017-08-11T06:31:40.814Z,26.11
2017-08-11T06:32:51.164Z,26.27
2017-08-11T06:34:00.900Z,26.32
2017-08-11T06:35:10.681Z,26.3
2017-08-11T06:36:21.062Z,26.32
2017-08-11T06:37:31.112Z,26.38
2017-08-11T06:38:41.165Z,26.41
2017-08-11T06:39:51.537Z,26.41
2017-08-11T06:41:01.952Z,26.41
2017-08-11T06:42:12.312Z,26.31
2017-08-11T06:43:22.685Z,26.3
2017-08-11T06:44:32.735Z,26.32
2017-08-11T06:45:42.781Z,26.24
2017-08-11T06:46:52.865Z,26.32
2017-08-11T06:48:03.221Z,26.38
2017-08-11T06:49:13.263Z,26.42
2017-08-11T06:50:23.282Z,26.3
2017-08-11T06:51:33.322Z,26.3
2017-08-11T06:52:43.723Z,26.19
2017-08-11T06:53:54.106Z,26.23
2017-08-11T06:55:04.468Z,26.3
2017-08-11T06:56:14.835Z,26.37
2017-08-11T06:57:25.191Z,26.42
2017-08-11T06:58:35.600Z,26.42
2017-08-11T06:59:45.961Z,26.41
2017-08-11T07:00:56.305Z,26.3
2017-08-11T07:02:06.668Z,26.16
2017-08-11T07:03:16.734Z,26.16
2017-08-11T07:04:26.511Z,26.19
2017-08-11T07:05:36.844Z,26.22
2017-08-11T07:06:46.876Z,25.99
2017-08-11T07:07:56.913Z,25.79
2017-08-11T07:09:06.944Z,25.67
2017-08-11T07:10:17.361Z,25.59
2017-08-11T07:11:27.399Z,25.86
2017-08-11T07:12:37.762Z,26
2017-08-11T07:13:49.574Z,25.97
2017-08-11T07:14:59.924Z,26.09
2017-08-11T07:16:10.323Z,26.27
2017-08-11T07:17:20.361Z,26.41
2017-08-11T07:18:30.450Z,26.78
2017-08-11T07:19:40.486Z,27
2017-08-11T07:20:50.881Z,27.05
2017-08-11T07:22:00.974Z,27.18
2017-08-11T07:23:11.322Z,27.23
2017-08-11T07:24:21.667Z,27.28
2017-08-11T07:25:32.033Z,27.18
2017-08-11T07:26:42.396Z,27.09
2017-08-11T07:27:52.806Z,27.08
2017-08-11T07:29:03.157Z,26.93
2017-08-11T07:30:13.192Z,26.91
2017-08-11T07:31:23.564Z,26.94
2017-08-11T07:32:33.918Z,26.94
2017-08-11T07:33:44.349Z,26.99
2017-08-11T07:34:54.387Z,26.82
2017-08-11T07:36:04.741Z,26.96
2017-08-11T07:37:14.471Z,26.87
2017-08-11T07:38:24.824Z,26.79
2017-08-11T07:39:34.916Z,26.79
2017-08-11T07:40:44.955Z,26.72
2017-08-11T07:41:55.002Z,26.63
2017-08-11T07:43:05.379Z,26.68
2017-08-11T07:44:15.724Z,26.61
2017-08-11T07:45:25.845Z,26.64
2017-08-11T07:46:36.196Z,26.64
2017-08-11T07:47:46.543Z,26.78
2017-08-11T07:48:56.907Z,26.76
2017-08-11T07:50:06.961Z,26.96
2017-08-11T07:51:17.386Z,26.94
2017-08-11T07:52:27.439Z,26.91
2017-08-11T07:53:37.806Z,27.05
2017-08-11T07:54:48.164Z,27.09
2017-08-11T07:55:58.522Z,27.09
2017-08-11T07:57:08.921Z,27.31
2017-08-11T07:58:19.277Z,27.48
2017-08-11T07:59:29.016Z,27.59
2017-08-11T08:00:39.065Z,27.86
2017-08-11T08:01:49.115Z,28.12
2017-08-11T08:02:59.229Z,28.28
2017-08-11T08:04:09.583Z,28.48
2017-08-11T08:05:19.949Z,28.48
2017-08-11T08:06:30.330Z,28.28
2017-08-11T08:07:40.687Z,28.18
2017-08-11T08:08:51.105Z,28.17
2017-08-11T08:10:01.446Z,28.12
2017-08-11T08:11:11.804Z,28.23
2017-08-11T08:12:22.154Z,28.45
2017-08-11T08:13:32.491Z,28.73
2017-08-11T08:14:42.301Z,29.06
2017-08-11T08:15:52.669Z,29.47
2017-08-11T08:17:02.714Z,29.52
2017-08-11T08:18:13.087Z,29.48
2017-08-11T08:19:23.462Z,29.54
2017-08-11T08:20:33.884Z,29.57
2017-08-11T08:21:44.267Z,29.48
2017-08-11T08:22:54.316Z,29.67
2017-08-11T08:24:04.683Z,29.66
2017-08-11T08:25:14.725Z,29.73
2017-08-11T08:26:25.153Z,29.95
2017-08-11T08:27:35.207Z,30.11
2017-08-11T08:28:45.248Z,30.18
2017-08-11T08:29:55.602Z,30.28
2017-08-11T08:31:05.949Z,30.22
2017-08-11T08:32:16.344Z,30.18
2017-08-11T08:33:26.401Z,30.14
2017-08-11T08:34:36.752Z,29.75
2017-08-11T08:35:47.098Z,29.42
2017-08-11T08:36:57.467Z,29.2
2017-08-11T08:38:07.574Z,28.82
2017-08-11T08:39:17.911Z,28.49
2017-08-11T08:40:30.029Z,28.26
2017-08-11T08:41:40.409Z,27.86
2017-08-11T08:42:50.766Z,27.49
2017-08-11T08:44:00.842Z,27.31
2017-08-11T08:45:11.189Z,27.15
2017-08-11T08:46:21.531Z,26.94
2017-08-11T08:47:31.882Z,26.78
2017-08-11T08:48:42.235Z,26.69
2017-08-11T08:49:52.664Z,26.54
2017-08-11T08:51:02.695Z,26.56
2017-08-11T08:52:13.059Z,26.59
2017-08-11T08:53:23.426Z,26.59
2017-08-11T08:54:33.796Z,26.68
2017-08-11T08:55:43.885Z,26.69
2017-08-11T08:56:54.249Z,26.79
2017-08-11T08:58:04.289Z,26.79
2017-08-11T08:59:14.655Z,26.76
2017-08-11T09:00:25.043Z,26.64
2017-08-11T09:01:35.447Z,26.64
2017-08-11T09:02:45.833Z,26.44
2017-08-11T09:03:56.197Z,26.34
2017-08-11T09:05:06.572Z,26.17
2017-08-11T09:06:16.929Z,26.04
2017-08-11T09:07:27.335Z,25.91
2017-08-11T09:08:37.710Z,25.85
2017-08-11T09:09:47.747Z,25.74
2017-08-11T09:10:58.097Z,25.63
2017-08-11T09:12:08.477Z,25.56
2017-08-11T09:13:18.885Z,25.48
2017-08-11T09:14:29.252Z,25.44
2017-08-11T09:15:39.631Z,25.29
2017-08-11T09:16:50.637Z,25.14
2017-08-11T09:18:00.988Z,25.01
2017-08-11T09:19:11.392Z,24.92
2017-08-11T09:20:21.451Z,24.75
2017-08-11T09:21:31.500Z,24.66
2017-08-11T09:22:41.866Z,24.54
2017-08-11T09:23:52.216Z,24.48
2017-08-11T09:25:03.815Z,24.33
2017-08-11T09:26:14.190Z,24.3
2017-08-11T09:27:24.532Z,24.29
2017-08-11T09:28:34.909Z,24.17
2017-08-11T09:29:44.945Z,24.09
2017-08-11T09:30:55.402Z,23.93
2017-08-11T09:32:05.750Z,23.85
2017-08-11T09:33:15.466Z,23.78
2017-08-11T09:34:25.513Z,23.59
2017-08-11T09:35:35.883Z,23.57
2017-08-11T09:36:45.661Z,23.57
2017-08-11T09:37:56.035Z,23.59
2017-08-11T09:39:06.396Z,23.59
2017-08-11T09:40:16.761Z,23.57
2017-08-11T09:41:26.804Z,23.64
2017-08-11T09:42:36.567Z,23.85
2017-08-11T09:43:46.275Z,24.09
2017-08-11T09:44:56.321Z,24.3
2017-08-11T09:46:06.705Z,24.33
2017-08-11T09:47:16.762Z,24.44
2017-08-11T09:48:27.167Z,24.51
2017-08-11T09:49:37.514Z,24.66
2017-08-11T09:50:48.473Z,25.04
2017-08-11T09:51:58.821Z,26.27
2017-08-11T09:53:08.243Z,27.45
2017-08-11T09:54:18.665Z,28.16
2017-08-11T09:55:29.023Z,28.58
2017-08-11T09:56:39.375Z,28.57
2017-08-11T09:57:49.749Z,28.46
2017-08-11T09:58:59.798Z,28.28
2017-08-11T10:00:10.212Z,28.24
2017-08-11T10:01:20.568Z,28.27
2017-08-11T10:02:30.911Z,28.31
2017-08-11T10:03:40.644Z,28.24
2017-08-11T10:04:51.002Z,28.39
2017-08-11T10:06:01.407Z,28.49
2017-08-11T10:07:11.441Z,28.55
2017-08-11T10:08:21.822Z,28.53
2017-08-11T10:09:31.896Z,28.67
2017-08-11T10:10:41.952Z,28.82
2017-08-11T10:11:52.057Z,29.35
2017-08-11T10:13:02.432Z,29.75
2017-08-11T10:14:12.492Z,30.19
2017-08-11T10:15:22.875Z,30.67
2017-08-11T10:16:33.227Z,30.73
2017-08-11T10:17:43.319Z,30.78
2017-08-11T10:18:53.366Z,30.73
2017-08-11T10:20:03.728Z,30.47
2017-08-11T10:21:14.083Z,30.28
2017-08-11T10:22:24.125Z,30.06
2017-08-11T10:23:34.538Z,29.61
2017-08-11T10:24:44.890Z,29.47
2017-08-11T10:25:54.936Z,29.4
2017-08-11T10:27:05.003Z,29.36
2017-08-11T10:28:15.361Z,29.33
2017-08-11T10:29:25.457Z,29.33
2017-08-11T10:30:35.989Z,29.24
2017-08-11T10:31:46.014Z,29.08
2017-08-11T10:32:56.406Z,28.94
2017-08-11T10:34:06.461Z,28.86
2017-08-11T10:35:16.872Z,28.85
2017-08-11T10:36:26.923Z,28.58
2017-08-11T10:37:37.289Z,28.46
2017-08-11T10:38:47.653Z,28.61
2017-08-11T10:39:58.024Z,28.82
2017-08-11T10:41:08.396Z,28.97
2017-08-11T10:42:18.758Z,29.21
2017-08-11T10:43:29.121Z,29.42
2017-08-11T10:44:39.468Z,29.85
2017-08-11T10:45:49.910Z,30.04
2017-08-11T10:47:00.304Z,30.11
2017-08-11T10:48:10.665Z,30.09
2017-08-11T10:49:20.701Z,30.13
2017-08-11T10:50:31.088Z,30.02
2017-08-11T10:51:41.500Z,30.07
2017-08-11T10:52:51.875Z,29.92
2017-08-11T10:54:02.219Z,29.95
2017-08-11T10:55:12.596Z,30.06
2017-08-11T10:56:22.957Z,30.1
2017-08-11T10:57:33.375Z,30.18
2017-08-11T10:58:43.442Z,30.14
2017-08-11T10:59:53.812Z,30.32
2017-08-11T11:01:04.175Z,30.49
2017-08-11T11:02:14.548Z,30.51
2017-08-11T11:03:24.657Z,30.47
2017-08-11T11:04:34.701Z,30.48
2017-08-11T11:05:44.421Z,30.44
2017-08-11T11:06:54.793Z,30.39
2017-08-11T11:08:05.149Z,30.49
2017-08-11T11:09:15.575Z,30.47
2017-08-11T11:10:25.625Z,30.45
2017-08-11T11:11:35.997Z,30.57
2017-08-11T11:12:46.379Z,30.73
2017-08-11T11:13:56.759Z,30.78
2017-08-11T11:15:07.181Z,30.77
2017-08-11T11:16:17.528Z,30.81
2017-08-11T11:17:27.878Z,30.7
2017-08-11T11:18:38.271Z,30.81
2017-08-11T11:19:47.998Z,30.89
2017-08-11T11:20:58.398Z,30.89
2017-08-11T11:22:08.789Z,30.89
2017-08-11T11:23:19.140Z,30.93
2017-08-11T11:24:29.503Z,31.03
2017-08-11T11:25:39.870Z,31.23
2017-08-11T11:26:50.308Z,31.13
2017-08-11T11:28:00.669Z,31.08
2017-08-11T11:29:11.026Z,30.93
2017-08-11T11:30:21.416Z,30.69
2017-08-11T11:31:31.803Z,30.44
2017-08-11T11:32:43.411Z,30.84
2017-08-11T11:33:53.820Z,31.06
2017-08-11T11:35:04.179Z,30.81
2017-08-11T11:36:14.549Z,30.73
2017-08-11T11:37:24.916Z,31.16
2017-08-11T11:38:35.338Z,31.13
2017-08-11T11:39:45.417Z,31.21
2017-08-11T11:40:55.787Z,31.41
2017-08-11T11:42:05.842Z,31.87
2017-08-11T11:43:16.192Z,32.16
2017-08-11T11:44:26.652Z,32.38
2017-08-11T11:45:37.023Z,32.43
2017-08-11T11:46:47.391Z,32.39
2017-08-11T11:47:57.745Z,32.3
2017-08-11T11:49:08.104Z,32.19
2017-08-11T11:50:18.528Z,32.09
2017-08-11T11:51:28.580Z,32.01
2017-08-11T11:52:38.954Z,31.44
2017-08-11T11:53:49.327Z,30.82
2017-08-11T11:54:59.688Z,30.54
2017-08-11T11:56:10.107Z,30.26
2017-08-11T11:57:20.473Z,30.16
2017-08-11T11:58:31.273Z,30.14
2017-08-11T11:59:41.649Z,30.19
2017-08-11T12:00:52.007Z,30.25
2017-08-11T12:02:02.618Z,30.24
2017-08-11T12:03:13.029Z,30.29
2017-08-11T12:04:23.403Z,30.57
2017-08-11T12:05:33.457Z,30.94
2017-08-11T12:06:43.819Z,31.34
2017-08-11T12:07:54.233Z,31.81
2017-08-11T12:09:04.591Z,32.09
2017-08-11T12:10:14.620Z,31.87
2017-08-11T12:11:24.976Z,31.56
2017-08-11T12:12:35.347Z,31.41
2017-08-11T12:13:45.756Z,31.45
2017-08-11T12:14:55.783Z,32
2017-08-11T12:16:05.837Z,32.09
2017-08-11T12:17:16.202Z,32.45
2017-08-11T12:18:26.568Z,32.28
2017-08-11T12:19:37.007Z,32.32
2017-08-11T12:20:47.367Z,32.09
2017-08-11T12:21:59.528Z,31.67
2017-08-11T12:23:09.909Z,31.43
2017-08-11T12:24:19.942Z,31.75
2017-08-11T12:25:30.348Z,32.05
2017-08-11T12:26:40.384Z,32.09
2017-08-11T12:27:50.763Z,31.95
2017-08-11T12:29:01.789Z,32.01
2017-08-11T12:30:12.163Z,32.27
2017-08-11T12:31:22.585Z,32.38
2017-08-11T12:32:32.944Z,32.57
2017-08-11T12:33:43.307Z,32.56
2017-08-11T12:34:53.665Z,32.72
2017-08-11T12:36:04.023Z,32.96
2017-08-11T12:37:14.437Z,32.9
2017-08-11T12:38:24.803Z,32.52
2017-08-11T12:39:34.846Z,31.95
2017-08-11T12:40:44.874Z,31.77
2017-08-11T12:41:55.251Z,31.26
2017-08-11T12:43:05.369Z,30.85
2017-08-11T12:44:15.434Z,30.57
2017-08-11T12:45:24.863Z,30.31
2017-08-11T12:46:35.211Z,30
2017-08-11T12:47:45.259Z,29.75
2017-08-11T12:48:55.368Z,29.88
2017-08-11T12:50:06.929Z,29.95
2017-08-11T12:51:17.306Z,29.76
2017-08-11T12:52:27.673Z,29.87
2017-08-11T12:53:37.718Z,29.6
2017-08-11T12:54:48.119Z,29.48
2017-08-11T12:55:57.859Z,29.48
2017-08-11T12:57:07.900Z,29.48
2017-08-11T12:58:18.281Z,29.42
2017-08-11T12:59:28.647Z,29.47
2017-08-11T13:00:39.055Z,29.33
2017-08-11T13:01:49.419Z,29.02
2017-08-11T13:02:59.799Z,28.83
2017-08-11T13:04:09.853Z,28.49
2017-08-11T13:05:19.899Z,28.42
2017-08-11T13:06:30.298Z,28.27
2017-08-11T13:07:40.352Z,28.16
2017-08-11T13:08:50.094Z,28.12
2017-08-11T13:10:00.451Z,28.08
2017-08-11T13:11:10.495Z,27.99
2017-08-11T13:12:20.918Z,28.01
2017-08-11T13:13:31.276Z,27.89
2017-08-11T13:14:41.319Z,27.87
2017-08-11T13:15:51.045Z,28.12
2017-08-11T13:17:01.400Z,28.61
2017-08-11T13:18:11.804Z,29.11
2017-08-11T13:19:21.854Z,29.63
2017-08-11T13:20:32.217Z,30
2017-08-11T13:21:42.578Z,30.32
2017-08-11T13:22:52.695Z,30.67
2017-08-11T13:24:03.126Z,30.6
2017-08-11T13:25:13.492Z,30.77
2017-08-11T13:26:23.554Z,30.71
2017-08-11T13:27:33.892Z,30.69
2017-08-11T13:28:44.240Z,30.59
2017-08-11T13:29:54.647Z,30.71
2017-08-11T13:31:05.014Z,30.63
2017-08-11T13:32:15.374Z,30.29
2017-08-11T13:33:25.420Z,30.32
2017-08-11T13:34:35.451Z,30.1
2017-08-11T13:35:45.866Z,29.89
2017-08-11T13:36:55.912Z,29.42
2017-08-11T13:38:06.265Z,28.91
2017-08-11T13:39:16.627Z,28.67
2017-08-11T13:40:27.006Z,28.42
2017-08-11T13:41:37.111Z,28.2
2017-08-11T13:42:47.467Z,28.01
2017-08-11T13:43:57.838Z,27.9
2017-08-11T13:45:08.206Z,27.64
2017-08-11T13:46:18.286Z,27.53
2017-08-11T13:47:28.063Z,27.38
2017-08-11T13:48:39.486Z,27.37
2017-08-11T13:49:49.567Z,27.15
2017-08-11T13:50:59.923Z,27.11
2017-08-11T13:52:10.277Z,27.11
2017-08-11T13:53:20.703Z,27.33
2017-08-11T13:54:31.062Z,27.42
2017-08-11T13:55:41.946Z,27.61
2017-08-11T13:56:52.320Z,27.69
2017-08-11T13:58:02.373Z,27.87
2017-08-11T13:59:12.773Z,27.89
2017-08-11T14:00:23.134Z,27.62
2017-08-11T14:01:33.490Z,27.59
2017-08-11T14:02:43.544Z,27.52
2017-08-11T14:03:53.902Z,27.48
2017-08-11T14:05:04.302Z,27.36
2017-08-11T14:06:14.670Z,27.28
2017-08-11T14:07:25.039Z,27.33
2017-08-11T14:08:35.423Z,27.26
2017-08-11T14:09:45.790Z,27.21
2017-08-11T14:10:56.191Z,27.11
2017-08-11T14:12:06.553Z,27.06
2017-08-11T14:13:17.857Z,27.11
2017-08-11T14:14:27.591Z,27
2017-08-11T14:15:37.960Z,27.11
2017-08-11T14:16:48.381Z,27.18
2017-08-11T14:17:58.419Z,27.26
2017-08-11T14:19:08.835Z,27.36
2017-08-11T14:20:19.191Z,27.42
2017-08-11T14:21:29.535Z,27.51
2017-08-11T14:22:39.949Z,27.45
2017-08-11T14:23:50.008Z,27.34
2017-08-11T14:25:00.420Z,27.27
2017-08-11T14:26:10.458Z,27.24
2017-08-11T14:27:20.498Z,27.13
2017-08-11T14:28:30.925Z,27.11
2017-08-11T14:29:41.306Z,27.08
2017-08-11T14:30:51.663Z,27.04
2017-08-11T14:32:02.010Z,27.01
2017-08-11T14:33:12.369Z,27.12
2017-08-11T14:34:22.793Z,27.13
2017-08-11T14:35:33.169Z,27.18
2017-08-11T14:36:43.535Z,27.3
2017-08-11T14:37:53.885Z,27.28
2017-08-11T14:39:04.242Z,27.36
2017-08-11T14:40:14.645Z,27.45
2017-08-11T14:41:25.028Z,27.53
2017-08-11T14:42:35.381Z,27.55
2017-08-11T14:43:45.746Z,27.52
2017-08-11T14:44:56.098Z,27.59
2017-08-11T14:46:06.517Z,27.51
2017-08-11T14:47:16.897Z,27.37
2017-08-11T14:48:26.944Z,27.45
2017-08-11T14:49:36.987Z,27.38
2017-08-11T14:50:47.068Z,27.42
2017-08-11T14:51:57.167Z,27.24
2017-08-11T14:53:07.551Z,27.3
2017-08-11T14:54:17.611Z,27.26
2017-08-11T14:55:27.672Z,27.15
2017-08-11T14:56:37.392Z,27.09
2017-08-11T14:57:47.480Z,27.18
2017-08-11T14:58:57.837Z,27.12
2017-08-11T15:00:08.203Z,27.15
2017-08-11T15:01:18.564Z,27.15
2017-08-11T15:02:30.295Z,27.06
2017-08-11T15:03:41.603Z,27.06
2017-08-11T15:04:51.966Z,27.08
2017-08-11T15:06:02.334Z,26.94
2017-08-11T15:07:12.702Z,26.96
2017-08-11T15:08:22.761Z,26.99
2017-08-11T15:09:32.859Z,26.82
2017-08-11T15:10:42.592Z,26.71
2017-08-11T15:11:52.317Z,26.61
2017-08-11T15:13:02.683Z,26.56
2017-08-11T15:14:13.049Z,26.39
2017-08-11T15:15:23.446Z,26.32
2017-08-11T15:16:33.812Z,26.34
2017-08-11T15:17:44.175Z,26.39
2017-08-11T15:18:54.537Z,26.22
2017-08-11T15:20:04.915Z,26.3
2017-08-11T15:21:15.325Z,26.26
2017-08-11T15:22:25.697Z,26.27
2017-08-11T15:23:35.749Z,26.27
2017-08-11T15:24:45.793Z,26.34
2017-08-11T15:25:56.746Z,26.32
2017-08-11T15:27:07.160Z,26.35
2017-08-11T15:28:17.525Z,26.47
2017-08-11T15:29:27.886Z,26.42
2017-08-11T15:30:38.260Z,26.38
2017-08-11T15:31:48.629Z,26.45
2017-08-11T15:32:59.059Z,26.41
2017-08-11T15:34:09.409Z,26.3
2017-08-11T15:35:19.149Z,26.35
2017-08-11T15:36:29.182Z,26.32
2017-08-11T15:37:39.554Z,26.31
2017-08-11T15:38:49.647Z,26.35